createdAt,value
2023-03-14T00:00:24.618Z,1.30
2023-03-14T00:03:04.917Z,0.90
2023-03-14T00:05:43.500Z,0.80
2023-03-14T00:08:17.657Z,1.10
2023-03-14T00:10:48.693Z,1.40
2023-03-14T00:13:20.244Z,0.90
2023-03-14T00:15:58.492Z,1.20
2023-03-14T00:18:29.544Z,0.80
2023-03-14T00:21:00.393Z,0.77
2023-03-14T00:23:34.697Z,1.00
2023-03-14T00:26:06.348Z,0.90
2023-03-14T00:28:42.336Z,1.00
2023-03-14T00:31:18.394Z,1.07
2023-03-14T00:33:48.170Z,0.90
2023-03-14T00:36:18.662Z,0.90
2023-03-14T00:38:59.335Z,1.20
2023-03-14T00:41:29.430Z,1.10
2023-03-14T00:44:07.396Z,0.93
2023-03-14T00:46:42.629Z,0.80
2023-03-14T00:49:17.086Z,0.90
2023-03-14T00:52:00.250Z,1.17
2023-03-14T00:54:30.116Z,1.00
2023-03-14T00:57:12.576Z,1.10
2023-03-14T00:59:50.177Z,1.20
2023-03-14T01:02:21.582Z,1.00
2023-03-14T01:04:54.623Z,1.27
2023-03-14T01:07:32.124Z,1.20
2023-03-14T01:10:12.302Z,1.17
2023-03-14T01:12:46.708Z,1.40
2023-03-14T01:15:18.170Z,1.10
2023-03-14T01:17:59.498Z,1.23
2023-03-14T01:20:32.659Z,1.37
2023-03-14T01:23:06.404Z,1.20
2023-03-14T01:25:46.975Z,1.03
2023-03-14T01:28:19.482Z,1.10
2023-03-14T01:30:50.020Z,1.03
2023-03-14T01:33:24.645Z,1.07
2023-03-14T01:36:06.544Z,1.03
2023-03-14T01:38:38.208Z,0.90
2023-03-14T01:41:16.747Z,1.07
2023-03-14T01:43:48.070Z,1.10
2023-03-14T01:46:33.876Z,0.93
2023-03-14T01:49:25.397Z,0.83
2023-03-14T01:52:04.730Z,0.90
2023-03-14T01:54:43.576Z,0.90
2023-03-14T01:57:27.690Z,0.93
2023-03-14T02:03:00.936Z,1.20
2023-03-14T02:05:44.266Z,1.50
2023-03-14T02:08:25.656Z,1.17
2023-03-14T02:11:08.595Z,0.90
2023-03-14T02:14:13.328Z,1.23
2023-03-14T02:17:05.238Z,1.30
2023-03-14T02:20:16.422Z,0.90
2023-03-14T02:23:05.500Z,1.70
2023-03-14T02:25:49.043Z,1.17
2023-03-14T02:28:37.979Z,1.03
2023-03-14T02:31:13.069Z,1.30
2023-03-14T02:33:43.836Z,1.20
2023-03-14T02:36:22.123Z,1.10
2023-03-14T02:39:04.701Z,0.73
2023-03-14T02:41:38.641Z,1.53
2023-03-14T02:44:20.907Z,1.17
2023-03-14T02:46:54.419Z,1.33
2023-03-14T02:49:24.976Z,1.10
2023-03-14T02:51:57.896Z,1.20
2023-03-14T02:54:39.743Z,1.30
2023-03-14T02:57:13.081Z,1.37
2023-03-14T02:59:59.475Z,1.03
2023-03-14T03:02:37.161Z,1.13
2023-03-14T03:05:20.180Z,1.30
2023-03-14T03:07:50.374Z,0.97
2023-03-14T03:10:28.049Z,1.20
2023-03-14T03:13:07.382Z,1.20
2023-03-14T03:15:42.878Z,1.00
2023-03-14T03:18:16.950Z,1.20
2023-03-14T03:21:00.459Z,0.90
2023-03-14T03:23:34.461Z,0.90
2023-03-14T03:26:13.467Z,1.20
2023-03-14T03:28:47.283Z,1.20
2023-03-14T03:31:26.118Z,1.30
2023-03-14T03:33:56.892Z,0.90
2023-03-14T03:36:33.161Z,1.00
2023-03-14T03:39:10.602Z,1.30
2023-03-14T03:41:50.867Z,1.00
2023-03-14T03:45:27.512Z,1.70
2023-03-14T03:48:01.777Z,1.63
2023-03-14T03:50:34.143Z,1.20
2023-03-14T03:53:32.469Z,1.50
2023-03-14T03:56:14.645Z,1.30
2023-03-14T03:58:46.307Z,1.67
2023-03-14T04:01:14.167Z,1.43
2023-03-14T04:03:50.660Z,1.23
2023-03-14T04:06:25.739Z,1.60
2023-03-14T04:09:06.250Z,1.50
2023-03-14T04:12:05.701Z,1.73
2023-03-14T04:14:55.512Z,1.83
2023-03-14T04:17:28.837Z,1.57
2023-03-14T04:20:15.880Z,1.53
2023-03-14T04:22:51.504Z,1.97
2023-03-14T04:25:25.992Z,1.80
2023-03-14T04:28:01.063Z,1.40
2023-03-14T04:30:44.588Z,1.50
2023-03-14T04:33:22.225Z,1.33
2023-03-14T04:36:05.439Z,1.63
2023-03-14T04:38:46.710Z,1.50
2023-03-14T04:41:25.517Z,1.70
2023-03-14T04:43:57.954Z,1.37
2023-03-14T04:46:31.380Z,1.20
2023-03-14T04:49:10.098Z,1.90
2023-03-14T04:51:54.413Z,1.40
2023-03-14T04:54:34.152Z,1.50
2023-03-14T04:57:07.464Z,1.27
2023-03-14T04:59:44.749Z,1.10
2023-03-14T05:02:50.607Z,1.20
2023-03-14T05:05:45.987Z,1.37
2023-03-14T05:08:48.123Z,1.53
2023-03-14T05:11:49.655Z,1.73
2023-03-14T05:14:40.241Z,1.13
2023-03-14T05:17:45.440Z,1.60
2023-03-14T05:20:38.232Z,1.13
2023-03-14T05:23:51.318Z,1.40
2023-03-14T05:26:47.311Z,1.60
2023-03-14T05:29:36.081Z,1.13
2023-03-14T05:32:31.692Z,1.10
2023-03-14T05:35:41.843Z,1.77
2023-03-14T05:38:45.468Z,1.60
2023-03-14T05:41:44.687Z,1.67
2023-03-14T05:44:48.757Z,1.50
2023-03-14T05:47:47.338Z,1.30
2023-03-14T05:50:40.151Z,1.47
2023-03-14T05:53:36.259Z,1.00
2023-03-14T05:56:39.280Z,1.10
2023-03-14T05:59:40.581Z,1.30
2023-03-14T06:02:27.485Z,1.50
2023-03-14T06:05:17.195Z,1.10
2023-03-14T06:07:48.799Z,1.07
2023-03-14T06:10:23.208Z,1.30
2023-03-14T06:12:58.100Z,1.30
2023-03-14T06:15:26.227Z,1.43
2023-03-14T06:17:59.898Z,1.03
2023-03-14T06:20:36.188Z,0.90
2023-03-14T06:23:08.096Z,1.17
2023-03-14T06:25:41.603Z,1.27
2023-03-14T06:28:13.401Z,0.90
2023-03-14T06:30:42.340Z,1.10
2023-03-14T06:33:22.354Z,1.33
2023-03-14T06:35:57.234Z,0.87
2023-03-14T06:38:31.547Z,0.90
2023-03-14T06:41:11.034Z,1.27
2023-03-14T06:43:47.954Z,1.57
2023-03-14T06:46:21.906Z,0.90
2023-03-14T06:49:00.263Z,1.07
2023-03-14T06:51:34.141Z,1.50
2023-03-14T06:54:12.178Z,1.10
2023-03-14T06:56:42.777Z,1.23
2023-03-14T06:59:19.746Z,0.90
2023-03-14T07:01:52.763Z,1.53
2023-03-14T07:04:34.436Z,1.37
2023-03-14T07:07:11.676Z,1.17
2023-03-14T07:09:49.304Z,1.00
2023-03-14T07:12:22.832Z,1.50
2023-03-14T07:14:59.134Z,1.20
2023-03-14T07:17:37.268Z,1.27
2023-03-14T07:20:12.614Z,0.93
2023-03-14T07:22:44.507Z,1.07
2023-03-14T07:25:15.175Z,1.47
2023-03-14T07:27:58.481Z,1.23
2023-03-14T07:30:35.212Z,1.30
2023-03-14T07:33:11.622Z,1.30
2023-03-14T07:35:43.949Z,1.10
2023-03-14T07:38:14.543Z,1.00
2023-03-14T07:41:05.191Z,1.13
2023-03-14T07:43:40.597Z,1.37
2023-03-14T07:46:18.337Z,1.20
2023-03-14T07:48:48.840Z,1.27
2023-03-14T07:51:21.265Z,1.57
2023-03-14T07:53:59.019Z,1.10
2023-03-14T07:56:31.940Z,1.30
2023-03-14T07:59:04.684Z,1.50
2023-03-14T08:01:39.778Z,1.17
2023-03-14T08:04:12.879Z,1.03
2023-03-14T08:06:52.590Z,1.13
2023-03-14T08:09:20.912Z,1.50
2023-03-14T08:11:52.616Z,1.37
2023-03-14T08:14:24.774Z,1.00
2023-03-14T08:16:57.870Z,1.53
2023-03-14T08:19:31.984Z,1.20
2023-03-14T08:22:04.281Z,1.40
2023-03-14T08:24:38.161Z,1.30
2023-03-14T08:27:10.852Z,1.20
2023-03-14T08:29:45.179Z,1.03
2023-03-14T08:32:16.106Z,1.40
2023-03-14T08:34:56.945Z,1.67
2023-03-14T08:37:31.063Z,1.27
2023-03-14T08:40:07.370Z,1.30
2023-03-14T08:42:43.429Z,1.20
2023-03-14T08:45:21.243Z,1.17
2023-03-14T08:48:04.744Z,1.63
2023-03-14T08:50:40.114Z,1.50
2023-03-14T08:53:12.889Z,1.33
2023-03-14T08:55:44.762Z,1.43
2023-03-14T08:58:30.050Z,1.23
2023-03-14T09:01:07.876Z,1.83
2023-03-14T09:03:49.899Z,1.00
2023-03-14T09:06:23.183Z,1.00
2023-03-14T09:08:56.275Z,0.90
2023-03-14T09:11:28.993Z,0.90
2023-03-14T09:13:57.624Z,0.90
2023-03-14T09:16:29.940Z,0.80
2023-03-14T09:19:04.548Z,1.33
2023-03-14T09:21:36.212Z,1.20
2023-03-14T09:24:08.338Z,1.13
2023-03-14T09:26:36.597Z,0.90
2023-03-14T09:29:11.411Z,1.10
2023-03-14T09:31:43.164Z,1.30
2023-03-14T09:34:14.001Z,1.00
2023-03-14T09:36:46.255Z,1.10
2023-03-14T09:39:16.982Z,1.07
2023-03-14T09:41:48.639Z,1.27
2023-03-14T09:44:34.387Z,1.00
2023-03-14T09:47:10.137Z,0.93
2023-03-14T09:49:47.157Z,1.00
2023-03-14T09:52:21.690Z,0.90
2023-03-14T09:54:54.912Z,1.53
2023-03-14T09:57:33.229Z,1.00
2023-03-14T10:00:12.916Z,0.70
2023-03-14T10:02:50.461Z,1.53
2023-03-14T10:05:33.530Z,0.87
2023-03-14T10:08:11.416Z,1.07
2023-03-14T10:10:44.757Z,0.70
2023-03-14T10:13:22.919Z,0.87
2023-03-14T10:15:58.568Z,1.13
2023-03-14T10:18:29.228Z,1.33
2023-03-14T10:21:19.744Z,1.43
2023-03-14T10:23:51.622Z,0.90
2023-03-14T10:26:38.633Z,0.70
2023-03-14T10:29:19.683Z,1.13
2023-03-14T10:31:59.825Z,1.07
2023-03-14T10:34:31.120Z,0.93
2023-03-14T10:37:08.783Z,0.90
2023-03-14T10:39:47.499Z,1.37
2023-03-14T10:42:26.152Z,0.90
2023-03-14T10:45:14.001Z,0.70
2023-03-14T10:47:56.248Z,0.80
2023-03-14T10:50:27.365Z,0.90
2023-03-14T10:53:13.554Z,1.20
2023-03-14T10:55:50.590Z,0.90
2023-03-14T10:58:26.245Z,0.80
2023-03-14T11:01:06.620Z,1.47
2023-03-14T11:03:41.042Z,1.03
2023-03-14T11:06:16.574Z,0.90
2023-03-14T11:09:04.235Z,1.10
2023-03-14T11:11:34.843Z,1.10
2023-03-14T11:14:26.243Z,1.10
2023-03-14T11:17:07.329Z,1.10
2023-03-14T11:20:03.658Z,1.10
2023-03-14T11:22:42.987Z,1.03
2023-03-14T11:25:37.418Z,1.10
2023-03-14T11:28:21.754Z,1.50
2023-03-14T11:30:59.427Z,1.20
2023-03-14T11:33:33.878Z,1.13
2023-03-14T11:36:10.264Z,1.20
2023-03-14T11:38:45.606Z,0.97
2023-03-14T11:41:23.679Z,1.20
2023-03-14T11:44:00.515Z,1.27
2023-03-14T11:46:35.550Z,1.17
2023-03-14T11:49:12.612Z,1.13
2023-03-14T11:55:40.319Z,0.90
2023-03-14T11:58:27.205Z,1.07
2023-03-14T12:01:04.455Z,0.90
2023-03-14T12:03:46.648Z,0.93
2023-03-14T12:06:24.800Z,0.60
2023-03-14T12:08:59.724Z,0.80
2023-03-14T12:11:39.302Z,1.10
2023-03-14T12:14:25.745Z,0.83
2023-03-14T12:17:05.074Z,0.80
2023-03-14T12:19:42.266Z,1.47
2023-03-14T12:22:38.174Z,0.60
2023-03-14T12:25:19.634Z,0.70
2023-03-14T12:28:11.587Z,0.70
2023-03-14T12:30:43.387Z,0.60
2023-03-14T12:33:33.300Z,0.80
2023-03-14T12:36:38.686Z,0.70
2023-03-14T12:39:31.938Z,0.70
2023-03-14T12:42:10.610Z,0.87
2023-03-14T12:44:52.046Z,0.80
2023-03-14T12:47:56.824Z,0.80
2023-03-14T12:50:37.934Z,0.87
2023-03-14T12:53:52.546Z,0.60
2023-03-14T12:56:47.464Z,0.70
2023-03-14T13:02:31.068Z,0.80
2023-03-14T13:05:14.380Z,0.63
2023-03-14T13:08:19.345Z,0.60
2023-03-14T13:10:58.485Z,0.87
2023-03-14T13:13:29.612Z,0.90
2023-03-14T13:16:04.914Z,0.80
2023-03-14T13:18:51.957Z,0.63
2023-03-14T13:21:26.784Z,0.80
2023-03-14T13:24:00.830Z,0.70
2023-03-14T13:26:45.009Z,0.67
2023-03-14T13:29:24.293Z,0.50
2023-03-14T13:31:58.448Z,0.70
2023-03-14T13:34:30.070Z,0.50
2023-03-14T13:37:02.156Z,0.60
2023-03-14T13:39:39.200Z,0.70
2023-03-14T13:42:19.781Z,0.70
2023-03-14T13:44:56.357Z,0.90
2023-03-14T13:47:29.428Z,0.90
2023-03-14T13:49:58.086Z,0.70
2023-03-14T13:52:49.179Z,0.70
2023-03-14T13:55:31.583Z,1.00
2023-03-14T13:58:05.473Z,0.73
2023-03-14T14:00:36.116Z,0.73
2023-03-14T14:03:15.313Z,0.63
2023-03-14T14:05:53.036Z,1.03
2023-03-14T14:08:29.182Z,0.70
2023-03-14T14:11:02.841Z,0.70
2023-03-14T14:13:40.148Z,0.80
2023-03-14T14:16:11.880Z,0.63
2023-03-14T14:18:41.658Z,0.93
2023-03-14T14:21:24.730Z,0.90
2023-03-14T14:24:08.502Z,1.00
2023-03-14T14:26:45.237Z,0.70
2023-03-14T14:29:56.402Z,0.57
2023-03-14T14:32:31.105Z,0.73
2023-03-14T14:35:11.419Z,0.70
2023-03-14T14:37:51.797Z,0.87
2023-03-14T14:40:33.176Z,1.03
2023-03-14T14:43:09.685Z,1.00
2023-03-14T14:45:44.276Z,0.93
2023-03-14T14:48:17.440Z,0.90
2023-03-14T14:51:00.111Z,0.60
2023-03-14T14:53:40.926Z,1.20
2023-03-14T14:56:22.635Z,0.80
2023-03-14T14:58:54.488Z,0.70
2023-03-14T15:01:33.498Z,0.70
2023-03-14T15:04:17.070Z,0.87
2023-03-14T15:06:54.577Z,1.00
2023-03-14T15:09:35.223Z,0.80
2023-03-14T15:12:13.324Z,1.10
2023-03-14T15:14:52.632Z,0.97
2023-03-14T15:17:25.277Z,1.00
2023-03-14T15:20:00.381Z,1.20
2023-03-14T15:22:33.627Z,1.70
2023-03-14T15:25:05.486Z,1.30
2023-03-14T15:27:56.080Z,1.30
2023-03-14T15:30:28.401Z,1.50
2023-03-14T15:33:02.837Z,1.57
2023-03-14T15:35:42.603Z,1.40
2023-03-14T15:38:29.433Z,1.33
2023-03-14T15:41:07.139Z,1.57
2023-03-14T15:43:43.765Z,1.43
2023-03-14T15:46:24.805Z,1.50
2023-03-14T15:49:02.343Z,1.83
2023-03-14T15:51:45.102Z,1.47
2023-03-14T15:54:19.412Z,1.30
2023-03-14T15:56:49.174Z,1.50
2023-03-14T15:59:30.726Z,1.70
2023-03-14T16:02:03.841Z,1.50
2023-03-14T16:04:38.224Z,1.27
2023-03-14T16:07:20.052Z,1.67
2023-03-14T16:09:55.293Z,1.50
2023-03-14T16:12:26.937Z,1.43
2023-03-14T16:15:07.527Z,1.40
2023-03-14T16:17:44.458Z,1.30
2023-03-14T16:20:26.455Z,1.20
2023-03-14T16:23:06.183Z,1.20
2023-03-14T16:25:40.108Z,1.10
2023-03-14T16:28:12.418Z,1.10
2023-03-14T16:31:01.867Z,1.10
2023-03-14T16:33:31.338Z,1.20
2023-03-14T16:36:06.661Z,1.20
2023-03-14T16:38:45.666Z,1.30
2023-03-14T16:41:20.314Z,2.03
2023-03-14T16:44:06.281Z,1.80
2023-03-14T16:46:55.317Z,1.40
2023-03-14T16:49:33.572Z,1.43
2023-03-14T16:52:11.498Z,1.57
2023-03-14T16:54:44.960Z,1.57
2023-03-14T16:57:18.955Z,1.90
2023-03-14T16:59:55.848Z,1.70
2023-03-14T17:02:33.129Z,2.20
2023-03-14T17:05:09.996Z,1.90
2023-03-14T17:07:38.159Z,1.67
2023-03-14T17:10:11.209Z,1.67
2023-03-14T17:12:54.076Z,1.90
2023-03-14T17:15:25.417Z,1.90
2023-03-14T17:17:57.441Z,2.17
2023-03-14T17:20:29.789Z,1.80
2023-03-14T17:23:10.737Z,1.60
2023-03-14T17:25:41.540Z,1.83
2023-03-14T17:28:14.991Z,1.70
2023-03-14T17:30:53.071Z,1.67
2023-03-14T17:33:29.552Z,1.40
2023-03-14T17:36:03.631Z,1.23
2023-03-14T17:38:35.281Z,1.33
2023-03-14T17:41:07.976Z,1.83
2023-03-14T17:43:38.729Z,1.60
2023-03-14T17:46:15.278Z,1.77
2023-03-14T17:48:52.725Z,2.00
2023-03-14T17:51:25.395Z,2.03
2023-03-14T17:54:06.160Z,2.03
2023-03-14T17:56:46.528Z,1.90
2023-03-14T17:59:27.987Z,2.17
2023-03-14T18:02:17.927Z,1.80
2023-03-14T18:05:01.072Z,1.80
2023-03-14T18:07:41.967Z,2.17
2023-03-14T18:10:17.909Z,2.13
2023-03-14T18:12:52.107Z,1.87
2023-03-14T18:15:25.736Z,2.43
2023-03-14T18:17:58.121Z,2.47
2023-03-14T18:20:45.898Z,2.00
2023-03-14T18:23:29.640Z,2.07
2023-03-14T18:26:10.366Z,2.00
2023-03-14T18:28:44.588Z,1.97
2023-03-14T18:31:25.020Z,2.40
2023-03-14T18:33:55.966Z,1.63
2023-03-14T18:36:38.741Z,1.80
2023-03-14T18:39:15.778Z,1.80
2023-03-14T18:41:55.173Z,2.20
2023-03-14T18:44:34.130Z,2.03
2023-03-14T18:47:11.946Z,1.77
2023-03-14T18:49:43.070Z,1.90
2023-03-14T18:52:31.405Z,2.47
2023-03-14T18:55:05.858Z,1.40
2023-03-14T18:57:41.699Z,1.20
2023-03-14T19:00:19.342Z,1.20
2023-03-14T19:02:50.105Z,1.27
2023-03-14T19:05:21.969Z,1.53
2023-03-14T19:08:04.814Z,1.33
2023-03-14T19:10:45.032Z,1.80
2023-03-14T19:13:15.943Z,1.37
2023-03-14T19:15:49.511Z,1.10
2023-03-14T19:18:21.816Z,1.00
2023-03-14T19:21:00.741Z,0.83
2023-03-14T19:23:39.460Z,1.00
2023-03-14T19:26:13.231Z,2.53
2023-03-14T19:28:47.911Z,1.87
2023-03-14T19:31:21.050Z,1.30
2023-03-14T19:33:52.645Z,2.10
2023-03-14T19:36:29.667Z,2.50
2023-03-14T19:39:06.603Z,1.45
2023-03-14T19:41:43.115Z,1.67
2023-03-14T19:44:21.754Z,1.63
2023-03-14T19:46:52.622Z,1.23
2023-03-14T19:49:27.662Z,1.77
2023-03-14T19:52:06.093Z,1.60
2023-03-14T19:54:45.070Z,1.20
2023-03-14T19:57:17.869Z,1.50
2023-03-14T19:59:49.326Z,1.60
2023-03-14T20:02:23.049Z,1.70
2023-03-14T20:04:58.341Z,1.92
2023-03-14T20:07:30.424Z,1.60
2023-03-14T20:10:24.844Z,1.95
2023-03-14T20:13:21.360Z,2.40
2023-03-14T20:16:07.475Z,2.07
2023-03-14T20:18:55.010Z,2.75
2023-03-14T20:21:40.079Z,2.50
2023-03-14T20:24:48.910Z,3.05
2023-03-14T20:27:44.297Z,3.08
2023-03-14T20:30:29.590Z,2.40
2023-03-14T20:33:51.305Z,3.13
2023-03-14T20:40:32.014Z,3.00
2023-03-14T20:43:36.205Z,3.20
2023-03-14T20:46:47.705Z,2.80
2023-03-14T20:50:00.943Z,2.50
2023-03-14T20:52:49.328Z,2.70
2023-03-14T20:55:36.610Z,2.95
2023-03-14T20:58:55.515Z,2.90
2023-03-14T21:01:32.282Z,1.98
2023-03-14T21:04:44.609Z,1.93
2023-03-14T21:07:33.936Z,3.10
2023-03-14T21:10:25.592Z,2.60
2023-03-14T21:13:41.233Z,2.10
2023-03-14T21:16:47.068Z,2.00
2023-03-14T21:19:35.427Z,2.03
2023-03-14T21:22:18.856Z,2.20
2023-03-14T21:25:05.671Z,2.50
2023-03-14T21:31:11.429Z,2.35
2023-03-14T21:37:19.300Z,1.95
2023-03-14T21:40:09.406Z,1.98
2023-03-14T21:43:24.220Z,1.92
2023-03-14T21:46:21.339Z,1.67
2023-03-14T21:49:28.968Z,2.05
2023-03-14T21:52:31.865Z,2.10
2023-03-14T21:55:10.776Z,2.72
2023-03-14T21:57:59.409Z,1.98
2023-03-14T22:00:57.506Z,2.10
2023-03-14T22:03:48.716Z,1.70
2023-03-14T22:06:31.131Z,1.20
2023-03-14T22:09:19.064Z,1.95
2023-03-14T22:12:09.246Z,1.63
2023-03-14T22:15:12.520Z,2.00
2023-03-14T22:18:15.424Z,1.20
2023-03-14T22:21:09.788Z,1.70
2023-03-14T22:23:50.354Z,2.00
2023-03-14T22:26:57.875Z,1.70
2023-03-14T22:30:00.762Z,1.33
2023-03-14T22:36:00.624Z,1.60
2023-03-14T22:38:54.668Z,1.77
2023-03-14T22:41:54.156Z,2.50
2023-03-14T22:44:54.583Z,2.85
2023-03-14T22:47:46.016Z,2.05
2023-03-14T22:50:35.200Z,2.60
2023-03-14T22:53:24.455Z,2.42
2023-03-14T22:59:43.267Z,2.45
2023-03-14T23:02:49.804Z,2.20
2023-03-14T23:05:38.740Z,2.15
2023-03-14T23:08:29.055Z,2.55
2023-03-14T23:11:24.647Z,2.42
2023-03-14T23:14:03.984Z,1.98
2023-03-14T23:16:54.108Z,2.45
2023-03-14T23:19:37.813Z,2.60
2023-03-14T23:22:30.584Z,2.45
2023-03-14T23:25:21.394Z,2.80
2023-03-14T23:28:17.926Z,2.33
2023-03-14T23:31:17.741Z,2.70
2023-03-14T23:34:07.398Z,2.80
2023-03-14T23:37:09.589Z,2.15
2023-03-14T23:39:42.179Z,2.47
2023-03-14T23:42:29.283Z,2.80
2023-03-14T23:45:14.214Z,2.95
2023-03-14T23:48:04.761Z,2.58
2023-03-14T23:50:48.791Z,2.75
2023-03-14T23:53:37.543Z,2.47
2023-03-14T23:56:14.629Z,2.33
2023-03-14T23:59:23.859Z,2.30
